^^
Station Historical Data
Daily Summary for April 10, 2021 Units:  English    Metric   Both
Daily Weekly Monthly Yearly
  High: Low: Average:
Temperature: 61.9 °F 51.7 °F 55.9 °F
Dew Point: 53.9 °F 48.2 °F 51.3 °F
Humidity: 91% 72% 85%
Wind Speed: 8mph 0mph 2.1mph
Wind Gust: 9mph - -
Wind- - South
Pressure: 29.74 in 29.65 in -
Precipitation: 0.00 in    
 
 
Tabular Data for April 10, 2021
Time Temperature Dew Point Pressure Wind Wind Speed Wind Gust Humidity Rainfall Rate (Hourly) solar
00:00 56.7 °F 53.8 °F 29.72 in SSW 1 mph 2 mph 90% 0.00 in 0 W/m2
00:05 56.9 °F 53.7 °F 29.72 in SSW 2 mph 5 mph 89% 0.00 in 0 W/m2
00:10 57.1 °F 53.6 °F 29.71 in SW 4 mph 4 mph 88% 0.00 in 0 W/m2
00:15 57.3 °F 53.5 °F 29.72 in SSW 5 mph 5 mph 87% 0.00 in 0 W/m2
00:20 57.5 °F 53.3 °F 29.72 in SW 4 mph 4 mph 86% 0.00 in 0 W/m2
00:25 57.6 °F 53.8 °F 29.72 in NNE 2 mph 4 mph 87% 0.00 in 0 W/m2
00:30 57.2 °F 53.4 °F 29.72 in NE 2 mph 2 mph 87% 0.00 in 0 W/m2
00:35 56.8 °F 53 °F 29.73 in NW 2 mph 2 mph 87% 0.00 in 0 W/m2
00:40 56.6 °F 53.1 °F 29.73 in NNW 2 mph 2 mph 88% 0.00 in 0 W/m2
00:45 56.4 °F 52.9 °F 29.73 in NW 2 mph 2 mph 88% 0.00 in 0 W/m2
00:50 56.1 °F 52.6 °F 29.72 in ENE 1 mph 2 mph 88% 0.00 in 0 W/m2
00:55 56 °F 52.8 °F 29.72 in ENE 1 mph 2 mph 89% 0.00 in 0 W/m2
01:00 55.9 °F 52.7 °F 29.72 in ENE 1 mph 1 mph 89% 0.00 in 0 W/m2
01:05 55.9 °F 52.7 °F 29.72 in ENE 1 mph 1 mph 89% 0.00 in 0 W/m2
01:10 55.9 °F 52.7 °F 29.72 in ENE 1 mph 1 mph 89% 0.00 in 0 W/m2
01:15 56 °F 53.1 °F 29.72 in ENE 1 mph 2 mph 90% 0.00 in 0 W/m2
01:20 56.1 °F 53.2 °F 29.71 in ENE 1 mph 2 mph 90% 0.00 in 0 W/m2
01:25 56.1 °F 53.2 °F 29.71 in ENE 1 mph 2 mph 90% 0.00 in 0 W/m2
01:30 56.2 °F 53.3 °F 29.71 in ENE 1 mph 1 mph 90% 0.00 in 0 W/m2
01:35 56.1 °F 53.2 °F 29.71 in ENE 1 mph 1 mph 90% 0.00 in 0 W/m2
01:40 56.1 °F 53.2 °F 29.71 in ENE 1 mph 1 mph 90% 0.00 in 0 W/m2
01:45 56.1 °F 53.2 °F 29.71 in SSW 1 mph 2 mph 90% 0.00 in 0 W/m2
01:50 56.2 °F 53.6 °F 29.71 in West 1 mph 2 mph 91% 0.00 in 0 W/m2
01:55 56.2 °F 53.6 °F 29.71 in SW 2 mph 5 mph 91% 0.00 in 0 W/m2
02:00 56.2 °F 53.3 °F 29.71 in SSW 3 mph 4 mph 90% 0.00 in 0 W/m2
02:05 56.3 °F 53.1 °F 29.71 in South 4 mph 4 mph 89% 0.00 in 0 W/m2
02:10 56.6 °F 52.5 °F 29.71 in SW 5 mph 8 mph 86% 0.00 in 0 W/m2
02:15 57.1 °F 52 °F 29.71 in SW 7 mph 9 mph 83% 0.00 in 0 W/m2
02:20 57.3 °F 51.5 °F 29.71 in SW 8 mph 8 mph 81% 0.00 in 0 W/m2
02:25 57.4 °F 51.6 °F 29.71 in WSW 8 mph 8 mph 81% 0.00 in 0 W/m2
02:30 57.4 °F 51.9 °F 29.71 in WSW 6 mph 6 mph 82% 0.00 in 0 W/m2
02:35 57.3 °F 52.2 °F 29.70 in SW 5 mph 6 mph 83% 0.00 in 0 W/m2
02:40 57.3 °F 52.2 °F 29.70 in WSW 4 mph 4 mph 83% 0.00 in 0 W/m2
02:45 57 °F 51.6 °F 29.71 in WSW 4 mph 4 mph 82% 0.00 in 0 W/m2
02:50 56.9 °F 51.8 °F 29.70 in West 4 mph 4 mph 83% 0.00 in 0 W/m2
02:55 56.7 °F 51.6 °F 29.70 in WSW 4 mph 4 mph 83% 0.00 in 0 W/m2
03:00 56.6 °F 51.5 °F 29.70 in WSW 3 mph 3 mph 83% 0.00 in 0 W/m2
03:05 56.5 °F 51.1 °F 29.70 in WSW 3 mph 3 mph 82% 0.00 in 0 W/m2
03:10 56.4 °F 51 °F 29.70 in West 3 mph 3 mph 82% 0.00 in 0 W/m2
03:15 56.3 °F 51.2 °F 29.69 in SW 2 mph 4 mph 83% 0.00 in 0 W/m2
03:20 56.3 °F 51.8 °F 29.70 in SW 3 mph 5 mph 85% 0.00 in 0 W/m2
03:25 56.2 °F 51.7 °F 29.70 in SW 4 mph 5 mph 85% 0.00 in 0 W/m2
03:30 56.1 °F 51.7 °F 29.70 in SSW 3 mph 4 mph 85% 0.00 in 0 W/m2
03:35 56.2 °F 52.1 °F 29.71 in SW 4 mph 5 mph 86% 0.00 in 0 W/m2
03:40 56.2 °F 51.7 °F 29.72 in SSW 5 mph 5 mph 85% 0.00 in 0 W/m2
03:45 56.2 °F 51.7 °F 29.72 in SSW 4 mph 6 mph 85% 0.00 in 0 W/m2
03:50 56.2 °F 51.7 °F 29.72 in SW 4 mph 4 mph 85% 0.00 in 0 W/m2
03:55 56.1 °F 51.7 °F 29.72 in SW 4 mph 4 mph 85% 0.00 in 0 W/m2
04:00 56 °F 51.2 °F 29.72 in WSW 3 mph 3 mph 84% 0.00 in 0 W/m2
04:05 55.7 °F 50.9 °F 29.72 in SSW 3 mph 3 mph 84% 0.00 in 0 W/m2
04:10 55.7 °F 50.6 °F 29.72 in West 3 mph 3 mph 83% 0.00 in 0 W/m2
04:15 55.5 °F 50.4 °F 29.72 in SW 2 mph 3 mph 83% 0.00 in 0 W/m2
04:20 55.4 °F 50.3 °F 29.72 in SSW 2 mph 2 mph 83% 0.00 in 0 W/m2
04:25 55.2 °F 50.4 °F 29.73 in WSW 2 mph 3 mph 84% 0.00 in 0 W/m2
04:30 55.1 °F 50.4 °F 29.73 in WSW 2 mph 2 mph 84% 0.00 in 0 W/m2
04:35 55 °F 50.6 °F 29.73 in SW 3 mph 4 mph 85% 0.00 in 0 W/m2
04:40 55.1 °F 51 °F 29.73 in SSW 3 mph 4 mph 86% 0.00 in 0 W/m2
04:45 55.2 °F 51.1 °F 29.73 in SSW 4 mph 4 mph 86% 0.00 in 0 W/m2
04:50 55.2 °F 51.1 °F 29.73 in SW 3 mph 3 mph 86% 0.00 in 0 W/m2
04:55 55.2 °F 50.8 °F 29.73 in SSW 3 mph 4 mph 85% 0.00 in 0 W/m2
05:00 55.2 °F 50.8 °F 29.73 in SSW 3 mph 3 mph 85% 0.00 in 0 W/m2
05:05 55.1 °F 50.7 °F 29.72 in SW 2 mph 3 mph 85% 0.00 in 0 W/m2
05:10 55.1 °F 50.7 °F 29.72 in SSW 2 mph 2 mph 85% 0.00 in 0 W/m2
05:15 55.1 °F 51 °F 29.73 in SSW 1 mph 2 mph 86% 0.00 in 0 W/m2
05:20 55.1 °F 51 °F 29.74 in North 1 mph 2 mph 86% 0.00 in 0 W/m2
05:25 55.2 °F 51.4 °F 29.73 in NNW 1 mph 2 mph 87% 0.00 in 0 W/m2
05:30 54.9 °F 51.1 °F 29.73 in SSE 1 mph 1 mph 87% 0.00 in 0 W/m2
05:35 54.5 °F 50.7 °F 29.73 in WSW 1 mph 1 mph 87% 0.00 in 0 W/m2
05:40 54.2 °F 50.4 °F 29.73 in NW 1 mph 1 mph 87% 0.00 in 0 W/m2
05:45 54 °F 50.2 °F 29.73 in East 1 mph 1 mph 87% 0.00 in 0 W/m2
05:50 53.8 °F 50 °F 29.73 in West 1 mph 1 mph 87% 0.00 in 0 W/m2
05:55 53.5 °F 49.7 °F 29.73 in ENE 1 mph 1 mph 87% 0.00 in 0 W/m2
06:00 53.3 °F 49.5 °F 29.74 in West 1 mph 1 mph 87% 0.00 in 0 W/m2
06:05 53.1 °F 49.3 °F 29.73 in East 1 mph 2 mph 87% 0.00 in 0 W/m2
06:10 52.9 °F 49.1 °F 29.73 in West 1 mph 1 mph 87% 0.00 in 0 W/m2
06:15 52.8 °F 49 °F 29.73 in SSE 1 mph 1 mph 87% 0.00 in 0 W/m2
06:20 52.7 °F 49.2 °F 29.73 in SSE 1 mph 1 mph 88% 0.00 in 0 W/m2
06:25 52.6 °F 49.1 °F 29.73 in SSE 2 mph 2 mph 88% 0.00 in 0 W/m2
06:30 52.5 °F 49 °F 29.73 in SSE 2 mph 2 mph 88% 0.00 in 0 W/m2
06:35 52.4 °F 48.9 °F 29.73 in SE 2 mph 2 mph 88% 0.00 in 0 W/m2
06:40 52.2 °F 48.4 °F 29.72 in SE 1 mph 1 mph 87% 0.00 in 0 W/m2
06:45 52.2 °F 48.4 °F 29.72 in SE 1 mph 1 mph 87% 0.00 in 0 W/m2
06:50 52.1 °F 48.3 °F 29.73 in Calm     87% 0.00 in 0 W/m2
06:55 51.9 °F 48.2 °F 29.73 in Calm   1 mph 87% 0.00 in 0 W/m2
07:00 51.9 °F 48.5 °F 29.73 in SSE 1 mph 1 mph 88% 0.00 in 5 W/m2
07:05 51.8 °F 48.4 °F 29.73 in SSE 1 mph 1 mph 88% 0.00 in 9 W/m2
07:10 51.8 °F 48.4 °F 29.73 in SSE 1 mph 1 mph 88% 0.00 in 11 W/m2
07:15 51.8 °F 48.4 °F 29.73 in Calm   1 mph 88% 0.00 in 14 W/m2
07:20 51.8 °F 48.4 °F 29.73 in Calm   1 mph 88% 0.00 in 19 W/m2
07:25 51.7 °F 48.3 °F 29.73 in SSE 1 mph 1 mph 88% 0.00 in 23 W/m2
07:30 51.8 °F 48.4 °F 29.73 in SSE 1 mph 1 mph 88% 0.00 in 26 W/m2
07:35 51.9 °F 48.5 °F 29.73 in Calm   1 mph 88% 0.00 in 30 W/m2
07:40 52.1 °F 48.7 °F 29.74 in South 1 mph 1 mph 88% 0.00 in 39 W/m2
07:45 52.2 °F 49.1 °F 29.74 in South 1 mph 2 mph 89% 0.00 in 39 W/m2
07:50 52.4 °F 49.3 °F 29.74 in SE 2 mph 2 mph 89% 0.00 in 40 W/m2
07:55 52.3 °F 48.9 °F 29.74 in SE 2 mph 2 mph 88% 0.00 in 47 W/m2
08:00 52.1 °F 48.7 °F 29.74 in SSE 2 mph 3 mph 88% 0.00 in 60 W/m2
08:05 52.1 °F 49 °F 29.74 in SSE 2 mph 3 mph 89% 0.00 in 70 W/m2
08:20 52.3 °F 49.2 °F 29.74 in SSE 1 mph 2 mph 89% 0.00 in 100 W/m2
08:25 52.4 °F 49.3 °F 29.73 in SE 2 mph 2 mph 89% 0.00 in 128 W/m2
08:30 52.4 °F 49.3 °F 29.74 in SE 2 mph 2 mph 89% 0.00 in 144 W/m2
08:35 52.6 °F 49.4 °F 29.74 in SE 2 mph 3 mph 89% 0.00 in 167 W/m2
08:45 52.8 °F 49.6 °F 29.74 in ESE 3 mph 4 mph 89% 0.00 in 199 W/m2
08:50 53 °F 49.8 °F 29.73 in SE 3 mph 3 mph 89% 0.00 in 234 W/m2
08:55 53.2 °F 50 °F 29.73 in SE 3 mph 3 mph 89% 0.00 in 239 W/m2
09:00 53.4 °F 49.9 °F 29.73 in SE 2 mph 2 mph 88% 0.00 in 265 W/m2
09:05 53.7 °F 50.2 °F 29.73 in SE 2 mph 3 mph 88% 0.00 in 281 W/m2
09:10 54 °F 50.5 °F 29.73 in SE 3 mph 3 mph 88% 0.00 in 297 W/m2
09:15 54.2 °F 50.4 °F 29.73 in SE 2 mph 3 mph 87% 0.00 in 292 W/m2
09:20 54.5 °F 50.4 °F 29.73 in SE 2 mph 2 mph 86% 0.00 in 308 W/m2
09:25 54.6 °F 50.8 °F 29.73 in SE 2 mph 2 mph 87% 0.00 in 323 W/m2
09:30 54.8 °F 50.7 °F 29.73 in SE 1 mph 2 mph 86% 0.00 in 313 W/m2
09:35 55.2 °F 51.1 °F 29.74 in Calm   2 mph 86% 0.00 in 336 W/m2
09:45 55.7 °F 51.6 °F 29.73 in Calm     86% 0.00 in 339 W/m2
09:50 55.9 °F 51.5 °F 29.73 in Calm     85% 0.00 in 318 W/m2
09:55 56.1 °F 51.7 °F 29.73 in Calm     85% 0.00 in 330 W/m2
10:00 56.2 °F 51.7 °F 29.73 in Calm     85% 0.00 in 390 W/m2
10:05 56.5 °F 52 °F 29.73 in Calm     85% 0.00 in 417 W/m2
10:10 56.7 °F 52.2 °F 29.73 in Calm     85% 0.00 in 415 W/m2
10:15 56.9 °F 52.4 °F 29.73 in Calm     85% 0.00 in 438 W/m2
10:20 57.1 °F 52.3 °F 29.73 in Calm   1 mph 84% 0.00 in 446 W/m2
10:30 57.7 °F 52.9 °F 29.73 in Calm     84% 0.00 in 469 W/m2
10:35 58 °F 52.9 °F 29.73 in Calm     83% 0.00 in 475 W/m2
10:40 58.3 °F 53.2 °F 29.72 in Calm     83% 0.00 in 483 W/m2
10:45 58.6 °F 53.1 °F 29.72 in Calm     82% 0.00 in 480 W/m2
10:50 58.7 °F 52.5 °F 29.72 in Calm   1 mph 80% 0.00 in 515 W/m2
10:55 59.1 °F 52.9 °F 29.72 in Calm   1 mph 80% 0.00 in 517 W/m2
11:00 59.4 °F 52.9 °F 29.72 in SSE 1 mph 3 mph 79% 0.00 in 531 W/m2
11:05 60 °F 53.5 °F 29.72 in SSE 2 mph 3 mph 79% 0.00 in 559 W/m2
11:10 61 °F 53.4 °F 29.71 in ESE 2 mph 3 mph 76% 0.00 in 564 W/m2
11:15 61.9 °F 53.9 °F 29.71 in SE 2 mph 3 mph 75% 0.00 in 575 W/m2
11:20 61.5 °F 53.5 °F 29.71 in SE 1 mph 1 mph 75% 0.00 in 605 W/m2
11:30 61 °F 52.3 °F 29.71 in NW 2 mph 3 mph 73% 0.00 in 638 W/m2
11:35 61.4 °F 52.7 °F 29.71 in NNW 2 mph 5 mph 73% 0.00 in 650 W/m2
11:45 61.5 °F 52.4 °F 29.71 in NNW 3 mph 4 mph 72% 0.00 in 649 W/m2
11:50 60.4 °F 52.1 °F 29.71 in North 3 mph 3 mph 74% 0.00 in 663 W/m2
11:55 59.9 °F 52 °F 29.70 in North 3 mph 4 mph 75% 0.00 in 657 W/m2
12:05 58.4 °F 51.6 °F 29.71 in NNE 3 mph 5 mph 78% 0.00 in 707 W/m2
12:10 58.8 °F 52 °F 29.70 in North 3 mph 3 mph 78% 0.00 in 707 W/m2
12:15 58.5 °F 51.3 °F 29.70 in NNW 3 mph 4 mph 77% 0.00 in 719 W/m2
12:20 58.8 °F 52.3 °F 29.70 in North 3 mph 3 mph 79% 0.00 in 700 W/m2
12:25 59 °F 52.1 °F 29.70 in North 3 mph 3 mph 78% 0.00 in 724 W/m2
12:30 58.8 °F 52 °F 29.70 in NNW 3 mph 3 mph 78% 0.00 in 770 W/m2
12:35 58.4 °F 51.9 °F 29.69 in NNW 3 mph 3 mph 79% 0.00 in 350 W/m2
12:40 58.4 °F 51.9 °F 29.68 in North 3 mph 3 mph 79% 0.00 in 413 W/m2
12:45 58.6 °F 52.1 °F 29.68 in North 3 mph 7 mph 79% 0.00 in 422 W/m2
12:50 58.5 °F 52 °F 29.68 in NNW 3 mph 3 mph 79% 0.00 in 524 W/m2
13:05 57.7 °F 51.2 °F 29.67 in ENE 3 mph 4 mph 79% 0.00 in 679 W/m2
13:20 58.7 °F 51.9 °F 29.67 in NE 3 mph 3 mph 78% 0.00 in 717 W/m2
13:25 58.9 °F 51.7 °F 29.66 in North 3 mph 5 mph 77% 0.00 in 758 W/m2
13:30 58.6 °F 51.4 °F 29.66 in NE 4 mph 4 mph 77% 0.00 in 744 W/m2
13:35 58.5 °F 51.3 °F 29.66 in NNE 4 mph 4 mph 77% 0.00 in 747 W/m2
13:40 58.4 °F 50.9 °F 29.66 in NNW 4 mph 4 mph 76% 0.00 in 756 W/m2
13:45 58.4 °F 50.9 °F 29.66 in North 4 mph 4 mph 76% 0.00 in 749 W/m2
13:55 58.2 °F 50.7 °F 29.65 in NNW 3 mph 5 mph 76% 0.00 in 812 W/m2
14:00 57.7 °F 50.2 °F 29.65 in NE 3 mph 3 mph 76% 0.00 in 487 W/m2
Sand Point, Michigan, USA
Compliments of Weather Underground - 2 mb